sensor_id;sensor_type;location;lat;lon;timestamp;P1;durP1;ratioP1;P2;durP2;ratioP2
11608;SDS011;5860;52.018;8.536;2023-07-29T00:01:37;2.20;;;2.00;;
11608;SDS011;5860;52.018;8.536;2023-07-29T00:04:07;2.10;;;1.90;;
11608;SDS011;5860;52.018;8.536;2023-07-29T00:06:37;2.10;;;1.90;;
11608;SDS011;5860;52.018;8.536;2023-07-29T00:09:06;3.05;;;2.10;;
11608;SDS011;5860;52.018;8.536;2023-07-29T00:11:33;2.20;;;2.00;;
11608;SDS011;5860;52.018;8.536;2023-07-29T00:14:00;2.67;;;2.00;;
11608;SDS011;5860;52.018;8.536;2023-07-29T00:16:27;2.10;;;1.90;;
11608;SDS011;5860;52.018;8.536;2023-07-29T00:18:55;2.30;;;2.10;;
11608;SDS011;5860;52.018;8.536;2023-07-29T00:21:22;2.38;;;2.17;;
11608;SDS011;5860;52.018;8.536;2023-07-29T00:23:49;2.10;;;1.90;;
11608;SDS011;5860;52.018;8.536;2023-07-29T00:26:16;2.30;;;2.10;;
11608;SDS011;5860;52.018;8.536;2023-07-29T00:28:43;4.17;;;2.40;;
11608;SDS011;5860;52.018;8.536;2023-07-29T00:31:10;2.33;;;2.13;;
11608;SDS011;5860;52.018;8.536;2023-07-29T00:33:37;2.53;;;2.33;;
11608;SDS011;5860;52.018;8.536;2023-07-29T00:36:04;2.53;;;2.20;;
11608;SDS011;5860;52.018;8.536;2023-07-29T00:38:31;2.27;;;2.07;;
11608;SDS011;5860;52.018;8.536;2023-07-29T00:40:58;2.60;;;2.40;;
11608;SDS011;5860;52.018;8.536;2023-07-29T00:43:26;2.60;;;2.40;;
11608;SDS011;5860;52.018;8.536;2023-07-29T00:45:53;2.50;;;2.30;;
11608;SDS011;5860;52.018;8.536;2023-07-29T00:48:20;4.33;;;2.40;;
11608;SDS011;5860;52.018;8.536;2023-07-29T00:50:50;3.10;;;2.80;;
11608;SDS011;5860;52.018;8.536;2023-07-29T00:53:17;2.80;;;2.60;;
11608;SDS011;5860;52.018;8.536;2023-07-29T00:55:44;3.33;;;2.70;;
11608;SDS011;5860;52.018;8.536;2023-07-29T00:58:12;2.50;;;2.30;;
11608;SDS011;5860;52.018;8.536;2023-07-29T01:00:38;3.30;;;2.50;;
11608;SDS011;5860;52.018;8.536;2023-07-29T01:03:06;4.57;;;2.78;;
11608;SDS011;5860;52.018;8.536;2023-07-29T01:05:40;2.60;;;2.40;;
11608;SDS011;5860;52.018;8.536;2023-07-29T01:08:37;3.13;;;2.80;;
11608;SDS011;5860;52.018;8.536;2023-07-29T01:11:17;3.47;;;2.70;;
11608;SDS011;5860;52.018;8.536;2023-07-29T01:16:56;3.67;;;2.73;;
11608;SDS011;5860;52.018;8.536;2023-07-29T01:22:35;2.83;;;2.47;;
11608;SDS011;5860;52.018;8.536;2023-07-29T01:25:03;2.80;;;2.60;;
11608;SDS011;5860;52.018;8.536;2023-07-29T01:27:31;3.08;;;2.60;;
11608;SDS011;5860;52.018;8.536;2023-07-29T01:29:58;2.90;;;2.70;;
11608;SDS011;5860;52.018;8.536;2023-07-29T01:38:04;3.85;;;2.65;;
11608;SDS011;5860;52.018;8.536;2023-07-29T01:40:33;3.03;;;2.83;;
11608;SDS011;5860;52.018;8.536;2023-07-29T01:43:00;3.00;;;2.70;;
11608;SDS011;5860;52.018;8.536;2023-07-29T01:45:27;2.80;;;2.60;;
11608;SDS011;5860;52.018;8.536;2023-07-29T01:47:58;4.10;;;2.50;;
11608;SDS011;5860;52.018;8.536;2023-07-29T01:50:25;3.10;;;2.90;;
11608;SDS011;5860;52.018;8.536;2023-07-29T01:52:51;2.90;;;2.60;;
11608;SDS011;5860;52.018;8.536;2023-07-29T01:55:18;3.20;;;2.63;;
11608;SDS011;5860;52.018;8.536;2023-07-29T01:57:45;3.07;;;2.60;;
11608;SDS011;5860;52.018;8.536;2023-07-29T02:00:12;4.17;;;2.47;;
11608;SDS011;5860;52.018;8.536;2023-07-29T02:02:39;3.20;;;2.83;;
11608;SDS011;5860;52.018;8.536;2023-07-29T02:05:06;3.00;;;2.80;;
11608;SDS011;5860;52.018;8.536;2023-07-29T02:07:33;2.92;;;2.72;;
11608;SDS011;5860;52.018;8.536;2023-07-29T02:10:00;3.40;;;2.57;;
11608;SDS011;5860;52.018;8.536;2023-07-29T02:12:27;2.83;;;2.60;;
11608;SDS011;5860;52.018;8.536;2023-07-29T02:14:54;4.10;;;3.10;;
11608;SDS011;5860;52.018;8.536;2023-07-29T02:17:21;3.03;;;2.63;;
11608;SDS011;5860;52.018;8.536;2023-07-29T02:19:48;3.37;;;2.73;;
11608;SDS011;5860;52.018;8.536;2023-07-29T02:22:16;2.97;;;2.77;;
11608;SDS011;5860;52.018;8.536;2023-07-29T02:24:44;3.10;;;2.80;;
11608;SDS011;5860;52.018;8.536;2023-07-29T02:27:11;3.20;;;3.00;;
11608;SDS011;5860;52.018;8.536;2023-07-29T02:29:38;2.90;;;2.70;;
11608;SDS011;5860;52.018;8.536;2023-07-29T02:32:05;4.00;;;3.43;;
11608;SDS011;5860;52.018;8.536;2023-07-29T02:34:32;4.40;;;3.07;;
11608;SDS011;5860;52.018;8.536;2023-07-29T02:36:59;4.50;;;3.23;;
11608;SDS011;5860;52.018;8.536;2023-07-29T02:39:26;4.03;;;3.20;;
11608;SDS011;5860;52.018;8.536;2023-07-29T02:41:53;3.20;;;3.00;;
11608;SDS011;5860;52.018;8.536;2023-07-29T02:44:21;3.73;;;3.33;;
11608;SDS011;5860;52.018;8.536;2023-07-29T02:46:48;3.63;;;3.33;;
11608;SDS011;5860;52.018;8.536;2023-07-29T02:49:15;3.10;;;2.90;;
11608;SDS011;5860;52.018;8.536;2023-07-29T02:51:42;2.97;;;2.77;;
11608;SDS011;5860;52.018;8.536;2023-07-29T02:54:09;5.03;;;2.80;;
11608;SDS011;5860;52.018;8.536;2023-07-29T02:56:36;3.00;;;2.80;;
11608;SDS011;5860;52.018;8.536;2023-07-29T02:59:03;2.90;;;2.60;;
11608;SDS011;5860;52.018;8.536;2023-07-29T03:01:30;3.00;;;2.67;;
11608;SDS011;5860;52.018;8.536;2023-07-29T03:03:57;3.57;;;2.60;;
11608;SDS011;5860;52.018;8.536;2023-07-29T03:06:24;2.17;;;2.03;;
11608;SDS011;5860;52.018;8.536;2023-07-29T03:08:51;2.07;;;1.87;;
11608;SDS011;5860;52.018;8.536;2023-07-29T03:11:18;3.30;;;2.50;;
11608;SDS011;5860;52.018;8.536;2023-07-29T03:13:45;2.60;;;2.40;;
11608;SDS011;5860;52.018;8.536;2023-07-29T03:16:16;2.37;;;2.17;;
11608;SDS011;5860;52.018;8.536;2023-07-29T03:18:44;2.67;;;2.30;;
11608;SDS011;5860;52.018;8.536;2023-07-29T03:21:11;2.63;;;2.30;;
11608;SDS011;5860;52.018;8.536;2023-07-29T03:23:38;3.30;;;2.10;;
11608;SDS011;5860;52.018;8.536;2023-07-29T03:26:05;2.60;;;2.40;;
11608;SDS011;5860;52.018;8.536;2023-07-29T03:28:39;2.27;;;2.10;;
11608;SDS011;5860;52.018;8.536;2023-07-29T03:31:07;2.40;;;2.20;;
11608;SDS011;5860;52.018;8.536;2023-07-29T03:33:35;3.03;;;2.80;;
11608;SDS011;5860;52.018;8.536;2023-07-29T03:36:02;3.77;;;2.27;;
11608;SDS011;5860;52.018;8.536;2023-07-29T03:38:29;2.60;;;2.40;;
11608;SDS011;5860;52.018;8.536;2023-07-29T03:40:56;2.70;;;2.50;;
11608;SDS011;5860;52.018;8.536;2023-07-29T03:43:24;2.57;;;2.33;;
11608;SDS011;5860;52.018;8.536;2023-07-29T03:45:51;2.63;;;2.43;;
11608;SDS011;5860;52.018;8.536;2023-07-29T03:48:18;2.57;;;2.37;;
11608;SDS011;5860;52.018;8.536;2023-07-29T03:50:45;2.60;;;2.40;;
11608;SDS011;5860;52.018;8.536;2023-07-29T03:53:11;2.50;;;2.30;;
11608;SDS011;5860;52.018;8.536;2023-07-29T03:55:38;5.07;;;2.30;;
11608;SDS011;5860;52.018;8.536;2023-07-29T03:58:05;2.83;;;2.33;;
11608;SDS011;5860;52.018;8.536;2023-07-29T04:00:33;2.40;;;2.20;;
11608;SDS011;5860;52.018;8.536;2023-07-29T04:03:00;2.60;;;2.40;;
11608;SDS011;5860;52.018;8.536;2023-07-29T04:05:27;4.33;;;2.20;;
11608;SDS011;5860;52.018;8.536;2023-07-29T04:07:54;2.90;;;2.27;;
11608;SDS011;5860;52.018;8.536;2023-07-29T04:10:21;2.60;;;2.40;;
11608;SDS011;5860;52.018;8.536;2023-07-29T04:12:48;2.85;;;2.60;;
11608;SDS011;5860;52.018;8.536;2023-07-29T04:15:15;3.10;;;2.80;;
11608;SDS011;5860;52.018;8.536;2023-07-29T04:17:42;2.70;;;2.20;;
11608;SDS011;5860;52.018;8.536;2023-07-29T04:20:09;2.63;;;2.43;;
11608;SDS011;5860;52.018;8.536;2023-07-29T04:22:37;4.00;;;2.40;;
11608;SDS011;5860;52.018;8.536;2023-07-29T04:25:04;2.80;;;2.60;;
11608;SDS011;5860;52.018;8.536;2023-07-29T04:27:31;2.37;;;2.17;;
11608;SDS011;5860;52.018;8.536;2023-07-29T04:29:58;3.50;;;2.23;;
11608;SDS011;5860;52.018;8.536;2023-07-29T04:32:25;3.43;;;2.00;;
11608;SDS011;5860;52.018;8.536;2023-07-29T04:34:52;2.20;;;2.00;;
11608;SDS011;5860;52.018;8.536;2023-07-29T04:37:19;2.40;;;2.20;;
11608;SDS011;5860;52.018;8.536;2023-07-29T04:39:46;3.30;;;2.40;;
11608;SDS011;5860;52.018;8.536;2023-07-29T04:42:13;2.50;;;2.30;;
11608;SDS011;5860;52.018;8.536;2023-07-29T04:44:42;2.47;;;2.27;;
11608;SDS011;5860;52.018;8.536;2023-07-29T04:47:10;3.08;;;2.22;;
11608;SDS011;5860;52.018;8.536;2023-07-29T04:49:37;6.38;;;2.42;;
11608;SDS011;5860;52.018;8.536;2023-07-29T04:52:04;2.28;;;2.10;;
11608;SDS011;5860;52.018;8.536;2023-07-29T04:54:31;2.30;;;2.10;;
11608;SDS011;5860;52.018;8.536;2023-07-29T04:56:58;2.57;;;1.93;;
11608;SDS011;5860;52.018;8.536;2023-07-29T04:59:25;2.33;;;2.07;;
11608;SDS011;5860;52.018;8.536;2023-07-29T05:01:51;2.38;;;2.17;;
11608;SDS011;5860;52.018;8.536;2023-07-29T05:04:20;3.58;;;2.10;;
11608;SDS011;5860;52.018;8.536;2023-07-29T05:06:48;3.28;;;1.80;;
11608;SDS011;5860;52.018;8.536;2023-07-29T05:09:15;2.15;;;1.75;;
11608;SDS011;5860;52.018;8.536;2023-07-29T05:11:44;4.93;;;2.00;;
11608;SDS011;5860;52.018;8.536;2023-07-29T05:14:15;2.00;;;1.80;;
11608;SDS011;5860;52.018;8.536;2023-07-29T05:16:44;4.43;;;2.05;;
11608;SDS011;5860;52.018;8.536;2023-07-29T05:19:11;1.70;;;1.58;;
11608;SDS011;5860;52.018;8.536;2023-07-29T05:21:38;3.00;;;1.77;;
11608;SDS011;5860;52.018;8.536;2023-07-29T05:24:05;2.65;;;1.73;;
11608;SDS011;5860;52.018;8.536;2023-07-29T05:26:32;2.70;;;2.05;;
11608;SDS011;5860;52.018;8.536;2023-07-29T05:29:00;1.95;;;1.75;;
11608;SDS011;5860;52.018;8.536;2023-07-29T05:31:27;2.53;;;1.92;;
11608;SDS011;5860;52.018;8.536;2023-07-29T05:33:54;1.88;;;1.70;;
11608;SDS011;5860;52.018;8.536;2023-07-29T05:36:21;2.67;;;2.20;;
11608;SDS011;5860;52.018;8.536;2023-07-29T05:38:48;1.70;;;1.60;;
11608;SDS011;5860;52.018;8.536;2023-07-29T05:41:16;2.03;;;1.80;;
11608;SDS011;5860;52.018;8.536;2023-07-29T05:43:43;6.35;;;1.85;;
11608;SDS011;5860;52.018;8.536;2023-07-29T05:46:10;2.35;;;2.10;;
11608;SDS011;5860;52.018;8.536;2023-07-29T05:48:37;2.33;;;1.90;;
11608;SDS011;5860;52.018;8.536;2023-07-29T05:51:03;1.73;;;1.63;;
11608;SDS011;5860;52.018;8.536;2023-07-29T05:53:31;1.90;;;1.80;;
11608;SDS011;5860;52.018;8.536;2023-07-29T05:55:58;1.65;;;1.55;;
11608;SDS011;5860;52.018;8.536;2023-07-29T05:58:25;4.40;;;2.00;;
11608;SDS011;5860;52.018;8.536;2023-07-29T06:00:52;2.50;;;1.83;;
11608;SDS011;5860;52.018;8.536;2023-07-29T06:03:19;2.03;;;1.70;;
11608;SDS011;5860;52.018;8.536;2023-07-29T06:05:46;1.92;;;1.67;;
11608;SDS011;5860;52.018;8.536;2023-07-29T06:08:18;1.95;;;1.80;;
11608;SDS011;5860;52.018;8.536;2023-07-29T06:10:45;2.05;;;1.80;;
11608;SDS011;5860;52.018;8.536;2023-07-29T06:13:12;1.80;;;1.67;;
11608;SDS011;5860;52.018;8.536;2023-07-29T06:15:39;2.42;;;2.22;;
11608;SDS011;5860;52.018;8.536;2023-07-29T06:18:06;3.03;;;1.80;;
11608;SDS011;5860;52.018;8.536;2023-07-29T06:20:33;2.30;;;2.00;;
11608;SDS011;5860;52.018;8.536;2023-07-29T06:23:00;2.10;;;2.00;;
11608;SDS011;5860;52.018;8.536;2023-07-29T06:25:27;2.13;;;1.95;;
11608;SDS011;5860;52.018;8.536;2023-07-29T06:27:54;3.10;;;2.40;;
11608;SDS011;5860;52.018;8.536;2023-07-29T06:30:21;2.42;;;2.22;;
11608;SDS011;5860;52.018;8.536;2023-07-29T06:32:48;2.78;;;2.53;;
11608;SDS011;5860;52.018;8.536;2023-07-29T06:35:14;2.53;;;2.30;;
11608;SDS011;5860;52.018;8.536;2023-07-29T06:37:42;2.20;;;2.00;;
11608;SDS011;5860;52.018;8.536;2023-07-29T06:40:09;6.40;;;2.53;;
11608;SDS011;5860;52.018;8.536;2023-07-29T06:42:36;2.65;;;2.45;;
11608;SDS011;5860;52.018;8.536;2023-07-29T06:45:04;2.97;;;2.78;;
11608;SDS011;5860;52.018;8.536;2023-07-29T06:47:32;3.13;;;2.83;;
11608;SDS011;5860;52.018;8.536;2023-07-29T06:49:58;3.97;;;3.00;;
11608;SDS011;5860;52.018;8.536;2023-07-29T06:52:26;2.85;;;2.65;;
11608;SDS011;5860;52.018;8.536;2023-07-29T06:54:53;3.42;;;2.90;;
11608;SDS011;5860;52.018;8.536;2023-07-29T06:57:20;3.72;;;3.03;;
11608;SDS011;5860;52.018;8.536;2023-07-29T06:59:47;3.72;;;3.22;;
11608;SDS011;5860;52.018;8.536;2023-07-29T07:02:14;4.93;;;3.67;;
11608;SDS011;5860;52.018;8.536;2023-07-29T07:04:40;6.22;;;4.20;;
11608;SDS011;5860;52.018;8.536;2023-07-29T07:07:08;5.40;;;4.90;;
11608;SDS011;5860;52.018;8.536;2023-07-29T07:09:35;7.15;;;5.70;;
11608;SDS011;5860;52.018;8.536;2023-07-29T07:12:02;8.95;;;5.45;;
11608;SDS011;5860;52.018;8.536;2023-07-29T07:14:29;6.90;;;6.20;;
11608;SDS011;5860;52.018;8.536;2023-07-29T07:16:56;8.50;;;7.57;;
11608;SDS011;5860;52.018;8.536;2023-07-29T07:19:23;10.68;;;9.68;;
11608;SDS011;5860;52.018;8.536;2023-07-29T07:21:50;12.68;;;10.40;;
11608;SDS011;5860;52.018;8.536;2023-07-29T07:24:17;13.63;;;11.35;;
11608;SDS011;5860;52.018;8.536;2023-07-29T07:26:44;12.68;;;11.48;;
11608;SDS011;5860;52.018;8.536;2023-07-29T07:29:10;15.02;;;13.15;;
11608;SDS011;5860;52.018;8.536;2023-07-29T07:31:37;15.43;;;12.35;;
11608;SDS011;5860;52.018;8.536;2023-07-29T07:34:04;13.45;;;12.13;;
11608;SDS011;5860;52.018;8.536;2023-07-29T07:36:31;13.35;;;12.13;;
11608;SDS011;5860;52.018;8.536;2023-07-29T07:38:58;13.32;;;11.93;;
11608;SDS011;5860;52.018;8.536;2023-07-29T07:41:25;13.40;;;12.10;;
11608;SDS011;5860;52.018;8.536;2023-07-29T07:43:52;10.77;;;9.68;;
11608;SDS011;5860;52.018;8.536;2023-07-29T07:46:19;9.75;;;8.90;;
11608;SDS011;5860;52.018;8.536;2023-07-29T07:48:46;11.07;;;8.55;;
11608;SDS011;5860;52.018;8.536;2023-07-29T07:51:13;8.85;;;8.07;;
11608;SDS011;5860;52.018;8.536;2023-07-29T07:53:40;10.40;;;7.60;;
11608;SDS011;5860;52.018;8.536;2023-07-29T07:56:08;7.20;;;6.60;;
11608;SDS011;5860;52.018;8.536;2023-07-29T07:58:35;6.68;;;6.07;;
11608;SDS011;5860;52.018;8.536;2023-07-29T08:01:03;5.88;;;5.28;;
11608;SDS011;5860;52.018;8.536;2023-07-29T08:03:30;5.13;;;4.72;;
11608;SDS011;5860;52.018;8.536;2023-07-29T08:05:58;4.30;;;3.78;;
11608;SDS011;5860;52.018;8.536;2023-07-29T08:08:25;4.82;;;4.13;;
11608;SDS011;5860;52.018;8.536;2023-07-29T08:10:53;4.43;;;4.03;;
11608;SDS011;5860;52.018;8.536;2023-07-29T08:13:21;5.00;;;3.90;;
11608;SDS011;5860;52.018;8.536;2023-07-29T08:15:49;4.47;;;4.07;;
11608;SDS011;5860;52.018;8.536;2023-07-29T08:18:17;4.20;;;3.90;;
11608;SDS011;5860;52.018;8.536;2023-07-29T08:20:57;4.05;;;3.75;;
11608;SDS011;5860;52.018;8.536;2023-07-29T08:23:25;3.92;;;3.53;;
11608;SDS011;5860;52.018;8.536;2023-07-29T08:25:56;5.47;;;3.53;;
11608;SDS011;5860;52.018;8.536;2023-07-29T08:28:38;3.67;;;3.38;;
11608;SDS011;5860;52.018;8.536;2023-07-29T08:31:05;3.03;;;2.75;;
11608;SDS011;5860;52.018;8.536;2023-07-29T08:33:33;2.92;;;2.65;;
11608;SDS011;5860;52.018;8.536;2023-07-29T08:36:01;2.50;;;2.30;;
11608;SDS011;5860;52.018;8.536;2023-07-29T08:38:29;2.42;;;2.20;;
11608;SDS011;5860;52.018;8.536;2023-07-29T08:40:58;2.50;;;2.30;;
11608;SDS011;5860;52.018;8.536;2023-07-29T08:43:32;2.75;;;2.10;;
11608;SDS011;5860;52.018;8.536;2023-07-29T08:46:00;3.28;;;1.90;;
11608;SDS011;5860;52.018;8.536;2023-07-29T08:48:40;2.35;;;2.10;;
11608;SDS011;5860;52.018;8.536;2023-07-29T08:51:09;2.40;;;2.20;;
11608;SDS011;5860;52.018;8.536;2023-07-29T08:53:37;3.50;;;2.50;;
11608;SDS011;5860;52.018;8.536;2023-07-29T08:56:06;1.92;;;1.83;;
11608;SDS011;5860;52.018;8.536;2023-07-29T08:58:33;3.22;;;2.30;;
11608;SDS011;5860;52.018;8.536;2023-07-29T09:01:01;2.38;;;1.92;;
11608;SDS011;5860;52.018;8.536;2023-07-29T09:03:29;2.60;;;1.50;;
11608;SDS011;5860;52.018;8.536;2023-07-29T09:05:56;1.60;;;1.50;;
11608;SDS011;5860;52.018;8.536;2023-07-29T09:08:25;2.20;;;1.40;;
11608;SDS011;5860;52.018;8.536;2023-07-29T09:10:53;1.58;;;1.38;;
11608;SDS011;5860;52.018;8.536;2023-07-29T09:13:22;1.48;;;1.10;;
11608;SDS011;5860;52.018;8.536;2023-07-29T09:15:49;2.75;;;1.25;;
11608;SDS011;5860;52.018;8.536;2023-07-29T09:18:20;1.20;;;1.10;;
11608;SDS011;5860;52.018;8.536;2023-07-29T09:20:47;1.70;;;1.20;;
11608;SDS011;5860;52.018;8.536;2023-07-29T09:23:16;1.35;;;1.00;;
11608;SDS011;5860;52.018;8.536;2023-07-29T09:25:43;1.83;;;1.02;;
11608;SDS011;5860;52.018;8.536;2023-07-29T09:28:14;1.15;;;1.00;;
11608;SDS011;5860;52.018;8.536;2023-07-29T09:30:44;1.00;;;0.90;;
11608;SDS011;5860;52.018;8.536;2023-07-29T09:33:12;1.05;;;0.88;;
11608;SDS011;5860;52.018;8.536;2023-07-29T09:35:39;2.40;;;1.30;;
11608;SDS011;5860;52.018;8.536;2023-07-29T09:38:06;0.80;;;0.80;;
11608;SDS011;5860;52.018;8.536;2023-07-29T09:40:37;1.27;;;1.15;;
11608;SDS011;5860;52.018;8.536;2023-07-29T09:43:06;4.28;;;0.88;;
11608;SDS011;5860;52.018;8.536;2023-07-29T09:45:35;2.75;;;0.90;;
11608;SDS011;5860;52.018;8.536;2023-07-29T09:48:03;4.63;;;0.93;;
11608;SDS011;5860;52.018;8.536;2023-07-29T09:50:36;1.15;;;1.00;;
11608;SDS011;5860;52.018;8.536;2023-07-29T09:53:03;1.10;;;0.80;;
11608;SDS011;5860;52.018;8.536;2023-07-29T09:55:32;1.83;;;1.45;;
11608;SDS011;5860;52.018;8.536;2023-07-29T09:58:00;1.33;;;1.00;;
11608;SDS011;5860;52.018;8.536;2023-07-29T10:00:30;1.65;;;1.00;;
11608;SDS011;5860;52.018;8.536;2023-07-29T10:02:58;3.10;;;0.85;;
11608;SDS011;5860;52.018;8.536;2023-07-29T10:05:26;1.27;;;0.90;;
11608;SDS011;5860;52.018;8.536;2023-07-29T10:07:54;1.05;;;0.82;;
11608;SDS011;5860;52.018;8.536;2023-07-29T10:10:22;1.45;;;1.00;;
11608;SDS011;5860;52.018;8.536;2023-07-29T10:12:49;3.55;;;1.35;;
11608;SDS011;5860;52.018;8.536;2023-07-29T10:15:16;1.75;;;1.00;;
11608;SDS011;5860;52.018;8.536;2023-07-29T10:17:44;1.63;;;1.45;;
11608;SDS011;5860;52.018;8.536;2023-07-29T10:20:15;1.30;;;1.20;;
11608;SDS011;5860;52.018;8.536;2023-07-29T10:22:43;1.33;;;1.20;;
11608;SDS011;5860;52.018;8.536;2023-07-29T10:25:15;1.00;;;0.90;;
11608;SDS011;5860;52.018;8.536;2023-07-29T10:27:53;1.25;;;1.00;;
11608;SDS011;5860;52.018;8.536;2023-07-29T10:30:26;1.10;;;1.00;;
11608;SDS011;5860;52.018;8.536;2023-07-29T10:32:55;2.35;;;0.90;;
11608;SDS011;5860;52.018;8.536;2023-07-29T10:35:24;1.02;;;0.88;;
11608;SDS011;5860;52.018;8.536;2023-07-29T10:37:51;3.83;;;1.38;;
11608;SDS011;5860;52.018;8.536;2023-07-29T10:40:19;0.65;;;0.65;;
11608;SDS011;5860;52.018;8.536;2023-07-29T10:43:31;1.15;;;0.75;;
11608;SDS011;5860;52.018;8.536;2023-07-29T10:45:41;0.90;;;0.80;;
11608;SDS011;5860;52.018;8.536;2023-07-29T10:48:11;1.88;;;1.77;;
11608;SDS011;5860;52.018;8.536;2023-07-29T10:50:39;1.85;;;1.40;;
11608;SDS011;5860;52.018;8.536;2023-07-29T10:53:06;2.10;;;1.55;;
11608;SDS011;5860;52.018;8.536;2023-07-29T10:55:34;3.47;;;1.10;;
11608;SDS011;5860;52.018;8.536;2023-07-29T10:58:15;1.10;;;0.95;;
11608;SDS011;5860;52.018;8.536;2023-07-29T11:00:46;1.38;;;0.90;;
11608;SDS011;5860;52.018;8.536;2023-07-29T11:03:13;0.80;;;0.60;;
11608;SDS011;5860;52.018;8.536;2023-07-29T11:06:04;1.00;;;0.90;;
11608;SDS011;5860;52.018;8.536;2023-07-29T11:08:30;1.02;;;0.80;;
11608;SDS011;5860;52.018;8.536;2023-07-29T11:11:04;0.98;;;0.73;;
11608;SDS011;5860;52.018;8.536;2023-07-29T11:13:34;0.82;;;0.60;;
11608;SDS011;5860;52.018;8.536;2023-07-29T11:16:02;2.97;;;0.80;;
11608;SDS011;5860;52.018;8.536;2023-07-29T11:18:33;2.25;;;0.70;;
11608;SDS011;5860;52.018;8.536;2023-07-29T11:21:02;0.82;;;0.75;;
11608;SDS011;5860;52.018;8.536;2023-07-29T11:23:34;2.20;;;0.90;;
11608;SDS011;5860;52.018;8.536;2023-07-29T11:26:03;0.80;;;0.70;;
11608;SDS011;5860;52.018;8.536;2023-07-29T11:28:31;0.75;;;0.73;;
11608;SDS011;5860;52.018;8.536;2023-07-29T11:31:04;1.40;;;1.15;;
11608;SDS011;5860;52.018;8.536;2023-07-29T11:33:32;1.30;;;0.90;;
11608;SDS011;5860;52.018;8.536;2023-07-29T11:35:59;0.88;;;0.88;;
11608;SDS011;5860;52.018;8.536;2023-07-29T11:38:26;1.40;;;1.30;;
11608;SDS011;5860;52.018;8.536;2023-07-29T11:41:00;3.25;;;1.55;;
11608;SDS011;5860;52.018;8.536;2023-07-29T11:43:29;1.48;;;1.23;;
11608;SDS011;5860;52.018;8.536;2023-07-29T11:46:00;0.80;;;0.80;;
11608;SDS011;5860;52.018;8.536;2023-07-29T11:48:28;1.02;;;0.88;;
11608;SDS011;5860;52.018;8.536;2023-07-29T11:50:59;0.70;;;0.70;;
11608;SDS011;5860;52.018;8.536;2023-07-29T11:53:30;1.52;;;1.40;;
11608;SDS011;5860;52.018;8.536;2023-07-29T11:55:58;1.65;;;1.35;;
11608;SDS011;5860;52.018;8.536;2023-07-29T11:58:26;1.35;;;1.23;;
11608;SDS011;5860;52.018;8.536;2023-07-29T12:00:53;1.52;;;1.10;;
11608;SDS011;5860;52.018;8.536;2023-07-29T12:03:20;1.77;;;0.93;;
11608;SDS011;5860;52.018;8.536;2023-07-29T12:05:49;1.60;;;1.00;;
11608;SDS011;5860;52.018;8.536;2023-07-29T12:08:16;2.13;;;0.80;;
11608;SDS011;5860;52.018;8.536;2023-07-29T12:10:43;3.22;;;1.00;;
11608;SDS011;5860;52.018;8.536;2023-07-29T12:13:11;1.20;;;1.08;;
11608;SDS011;5860;52.018;8.536;2023-07-29T12:15:38;1.10;;;1.00;;
11608;SDS011;5860;52.018;8.536;2023-07-29T12:18:06;1.17;;;1.08;;
11608;SDS011;5860;52.018;8.536;2023-07-29T12:20:33;1.45;;;0.98;;
11608;SDS011;5860;52.018;8.536;2023-07-29T12:23:00;3.50;;;1.20;;
11608;SDS011;5860;52.018;8.536;2023-07-29T12:25:29;1.40;;;1.20;;
11608;SDS011;5860;52.018;8.536;2023-07-29T12:27:56;1.40;;;1.30;;
11608;SDS011;5860;52.018;8.536;2023-07-29T12:30:28;1.42;;;1.33;;
11608;SDS011;5860;52.018;8.536;2023-07-29T12:32:55;1.83;;;1.65;;
11608;SDS011;5860;52.018;8.536;2023-07-29T12:35:22;2.03;;;1.38;;
11608;SDS011;5860;52.018;8.536;2023-07-29T12:38:00;2.58;;;1.30;;
11608;SDS011;5860;52.018;8.536;2023-07-29T12:40:28;2.20;;;1.60;;
11608;SDS011;5860;52.018;8.536;2023-07-29T12:42:55;2.33;;;1.80;;
11608;SDS011;5860;52.018;8.536;2023-07-29T12:45:22;3.97;;;1.88;;
11608;SDS011;5860;52.018;8.536;2023-07-29T12:47:50;1.23;;;1.10;;
11608;SDS011;5860;52.018;8.536;2023-07-29T12:50:17;1.98;;;1.55;;
11608;SDS011;5860;52.018;8.536;2023-07-29T12:52:44;1.40;;;1.30;;
11608;SDS011;5860;52.018;8.536;2023-07-29T12:55:11;1.50;;;1.40;;
11608;SDS011;5860;52.018;8.536;2023-07-29T12:57:41;1.65;;;1.35;;
11608;SDS011;5860;52.018;8.536;2023-07-29T13:00:09;1.27;;;1.00;;
11608;SDS011;5860;52.018;8.536;2023-07-29T13:02:36;1.27;;;1.17;;
11608;SDS011;5860;52.018;8.536;2023-07-29T13:05:03;1.33;;;1.00;;
11608;SDS011;5860;52.018;8.536;2023-07-29T13:07:30;1.42;;;1.05;;
11608;SDS011;5860;52.018;8.536;2023-07-29T13:09:57;1.20;;;1.10;;
11608;SDS011;5860;52.018;8.536;2023-07-29T13:12:24;1.15;;;1.05;;
11608;SDS011;5860;52.018;8.536;2023-07-29T13:14:51;0.80;;;0.80;;
11608;SDS011;5860;52.018;8.536;2023-07-29T13:17:18;1.10;;;0.95;;
11608;SDS011;5860;52.018;8.536;2023-07-29T13:19:45;1.45;;;1.00;;
11608;SDS011;5860;52.018;8.536;2023-07-29T13:22:12;1.23;;;1.00;;
11608;SDS011;5860;52.018;8.536;2023-07-29T13:24:39;1.88;;;1.10;;
11608;SDS011;5860;52.018;8.536;2023-07-29T13:27:06;3.75;;;1.30;;
11608;SDS011;5860;52.018;8.536;2023-07-29T13:29:33;1.02;;;0.90;;
11608;SDS011;5860;52.018;8.536;2023-07-29T13:32:00;0.95;;;0.90;;
11608;SDS011;5860;52.018;8.536;2023-07-29T13:34:27;0.80;;;0.80;;
11608;SDS011;5860;52.018;8.536;2023-07-29T13:36:53;2.28;;;1.10;;
11608;SDS011;5860;52.018;8.536;2023-07-29T13:39:21;1.48;;;0.70;;
11608;SDS011;5860;52.018;8.536;2023-07-29T13:41:48;1.30;;;1.05;;
11608;SDS011;5860;52.018;8.536;2023-07-29T13:44:14;1.20;;;1.10;;
11608;SDS011;5860;52.018;8.536;2023-07-29T13:46:41;1.30;;;1.20;;
11608;SDS011;5860;52.018;8.536;2023-07-29T13:49:08;1.10;;;1.00;;
11608;SDS011;5860;52.018;8.536;2023-07-29T13:51:35;1.13;;;0.95;;
11608;SDS011;5860;52.018;8.536;2023-07-29T13:54:03;1.33;;;1.08;;
11608;SDS011;5860;52.018;8.536;2023-07-29T13:56:30;1.73;;;1.00;;
11608;SDS011;5860;52.018;8.536;2023-07-29T13:58:57;1.42;;;1.10;;
11608;SDS011;5860;52.018;8.536;2023-07-29T14:01:24;2.53;;;1.00;;
11608;SDS011;5860;52.018;8.536;2023-07-29T14:03:50;1.90;;;1.02;;
11608;SDS011;5860;52.018;8.536;2023-07-29T14:06:17;1.40;;;1.10;;
11608;SDS011;5860;52.018;8.536;2023-07-29T14:08:51;1.23;;;1.10;;
11608;SDS011;5860;52.018;8.536;2023-07-29T14:11:17;1.33;;;1.10;;
11608;SDS011;5860;52.018;8.536;2023-07-29T14:13:44;1.98;;;1.27;;
11608;SDS011;5860;52.018;8.536;2023-07-29T14:16:11;2.75;;;1.10;;
11608;SDS011;5860;52.018;8.536;2023-07-29T14:18:38;2.42;;;1.10;;
11608;SDS011;5860;52.018;8.536;2023-07-29T14:21:05;2.22;;;1.13;;
11608;SDS011;5860;52.018;8.536;2023-07-29T14:23:32;3.33;;;1.13;;
11608;SDS011;5860;52.018;8.536;2023-07-29T14:25:59;2.33;;;1.10;;
11608;SDS011;5860;52.018;8.536;2023-07-29T14:28:29;1.50;;;1.40;;
11608;SDS011;5860;52.018;8.536;2023-07-29T14:30:57;2.08;;;1.10;;
11608;SDS011;5860;52.018;8.536;2023-07-29T14:33:24;1.60;;;1.30;;
11608;SDS011;5860;52.018;8.536;2023-07-29T14:35:52;2.90;;;1.33;;
11608;SDS011;5860;52.018;8.536;2023-07-29T14:38:19;1.58;;;1.45;;
11608;SDS011;5860;52.018;8.536;2023-07-29T14:40:47;2.35;;;1.10;;
11608;SDS011;5860;52.018;8.536;2023-07-29T14:43:17;1.42;;;1.27;;
11608;SDS011;5860;52.018;8.536;2023-07-29T14:45:44;2.05;;;1.50;;
11608;SDS011;5860;52.018;8.536;2023-07-29T14:48:10;1.95;;;1.45;;
11608;SDS011;5860;52.018;8.536;2023-07-29T14:50:38;2.00;;;1.25;;
11608;SDS011;5860;52.018;8.536;2023-07-29T14:53:05;1.65;;;1.05;;
11608;SDS011;5860;52.018;8.536;2023-07-29T14:55:32;1.83;;;1.30;;
11608;SDS011;5860;52.018;8.536;2023-07-29T14:57:59;1.63;;;1.50;;
11608;SDS011;5860;52.018;8.536;2023-07-29T15:00:26;3.00;;;1.60;;
11608;SDS011;5860;52.018;8.536;2023-07-29T15:02:53;2.47;;;2.00;;
11608;SDS011;5860;52.018;8.536;2023-07-29T15:05:21;4.47;;;1.70;;
11608;SDS011;5860;52.018;8.536;2023-07-29T15:07:47;2.45;;;1.75;;
11608;SDS011;5860;52.018;8.536;2023-07-29T15:10:15;2.90;;;2.03;;
11608;SDS011;5860;52.018;8.536;2023-07-29T15:12:42;3.83;;;2.25;;
11608;SDS011;5860;52.018;8.536;2023-07-29T15:15:13;2.95;;;2.53;;
11608;SDS011;5860;52.018;8.536;2023-07-29T15:17:40;2.60;;;2.40;;